createdAt,value
2019-05-21T00:00:50.896Z,65.17
2019-05-21T00:03:20.183Z,65.90
2019-05-21T00:05:49.467Z,65.41
2019-05-21T00:08:18.781Z,66.30
2019-05-21T00:10:48.136Z,66.79
2019-05-21T00:13:17.541Z,67.29
2019-05-21T00:15:46.813Z,67.43
2019-05-21T00:18:16.172Z,67.35
2019-05-21T00:20:45.489Z,67.75
2019-05-21T00:23:14.781Z,68.07
2019-05-21T00:25:44.198Z,68.46
2019-05-21T00:28:34.628Z,68.10
2019-05-21T00:31:40.306Z,67.61
2019-05-21T00:34:46.195Z,69.31
2019-05-21T00:37:52.045Z,69.33
2019-05-21T00:40:57.795Z,70.82
2019-05-21T00:43:39.356Z,71.91
2019-05-21T00:46:08.607Z,73.24
2019-05-21T00:48:37.943Z,72.33
2019-05-21T00:51:07.215Z,71.80
2019-05-21T00:53:36.500Z,70.96
2019-05-21T00:56:05.754Z,72.04
2019-05-21T00:58:34.981Z,71.85
2019-05-21T01:01:04.311Z,72.35
2019-05-21T01:03:33.566Z,71.44
2019-05-21T01:06:02.942Z,70.41
2019-05-21T01:08:32.191Z,71.13
2019-05-21T01:11:01.364Z,71.62
2019-05-21T01:13:30.604Z,70.76
2019-05-21T01:16:00.329Z,69.99
2019-05-21T01:18:29.580Z,66.74
2019-05-21T01:20:58.925Z,66.69
2019-05-21T01:23:28.323Z,67.74
2019-05-21T01:25:57.696Z,68.92
2019-05-21T01:28:26.985Z,69.74
2019-05-21T01:30:56.377Z,68.95
2019-05-21T01:33:25.684Z,69.19
2019-05-21T01:35:55.039Z,67.73
2019-05-21T01:38:24.359Z,68.18
2019-05-21T01:40:53.584Z,68.35
2019-05-21T01:43:22.803Z,68.29
2019-05-21T01:45:52.072Z,67.88
2019-05-21T01:48:21.416Z,67.67
2019-05-21T01:50:50.691Z,68.92
2019-05-21T01:53:19.936Z,68.84
2019-05-21T01:55:49.173Z,69.51
2019-05-21T01:58:18.453Z,69.90
2019-05-21T02:00:47.683Z,70.55
2019-05-21T02:03:16.929Z,70.20
2019-05-21T02:05:46.180Z,70.28
2019-05-21T02:08:15.506Z,71.27
2019-05-21T02:10:44.732Z,71.44
2019-05-21T02:13:13.980Z,70.39
2019-05-21T02:15:43.225Z,69.67
2019-05-21T02:18:12.424Z,68.78
2019-05-21T02:20:41.629Z,68.61
2019-05-21T02:23:10.888Z,69.32
2019-05-21T02:25:40.737Z,69.82
2019-05-21T02:28:09.924Z,67.88
2019-05-21T02:30:39.151Z,66.80
2019-05-21T02:33:08.322Z,65.88
2019-05-21T02:35:52.734Z,62.76
2019-05-21T02:38:08.502Z,58.89
2019-05-21T02:40:37.823Z,58.56
2019-05-21T02:43:07.109Z,58.63
2019-05-21T02:45:36.295Z,56.30
2019-05-21T02:48:05.455Z,55.13
2019-05-21T02:50:34.661Z,55.44
2019-05-21T02:53:03.862Z,55.47
2019-05-21T02:55:33.158Z,59.13
2019-05-21T02:58:02.413Z,61.43
2019-05-21T03:00:38.223Z,62.46
2019-05-21T03:03:06.150Z,63.49
2019-05-21T03:05:35.320Z,60.84
2019-05-21T03:08:04.567Z,62.33
2019-05-21T03:10:33.879Z,63.53
2019-05-21T03:13:03.059Z,65.61
2019-05-21T03:15:32.389Z,67.12
2019-05-21T03:18:01.731Z,64.59
2019-05-21T03:20:31.093Z,64.23
2019-05-21T03:23:00.273Z,64.70
2019-05-21T03:25:29.522Z,63.16
2019-05-21T03:27:58.820Z,65.41
2019-05-21T03:30:28.070Z,66.21
2019-05-21T03:32:57.311Z,65.76
2019-05-21T03:35:26.574Z,63.89
2019-05-21T03:37:55.982Z,63.47
2019-05-21T03:40:25.215Z,62.14
2019-05-21T03:42:54.528Z,62.18
2019-05-21T03:45:23.784Z,61.21
2019-05-21T03:47:53.022Z,60.33
2019-05-21T03:50:22.257Z,59.33
2019-05-21T03:52:51.433Z,59.65
2019-05-21T03:55:20.604Z,59.05
2019-05-21T03:57:49.804Z,58.68
2019-05-21T04:00:19.050Z,57.20
2019-05-21T04:02:48.408Z,56.09
2019-05-21T04:05:25.408Z,55.06
2019-05-21T04:07:54.596Z,53.82
2019-05-21T04:10:23.919Z,52.88
2019-05-21T04:13:09.103Z,51.79
2019-05-21T04:15:57.412Z,50.44
2019-05-21T04:18:28.235Z,49.17
2019-05-21T04:20:57.416Z,50.06
2019-05-21T04:23:26.655Z,48.38
2019-05-21T04:25:55.997Z,47.96
2019-05-21T04:28:25.165Z,47.04
2019-05-21T04:30:54.495Z,48.98
2019-05-21T04:33:23.683Z,48.81
2019-05-21T04:35:52.920Z,48.89
2019-05-21T04:38:22.257Z,46.99
2019-05-21T04:40:51.526Z,45.70
2019-05-21T04:43:20.779Z,44.55
2019-05-21T04:45:50.045Z,43.65
2019-05-21T04:48:20.524Z,42.68
2019-05-21T04:50:49.759Z,44.30
2019-05-21T04:53:18.934Z,44.48
2019-05-21T04:55:48.091Z,46.00
2019-05-21T04:58:17.474Z,46.65
2019-05-21T05:00:46.732Z,45.14
2019-05-21T05:03:15.917Z,44.74
2019-05-21T05:05:45.220Z,42.64
2019-05-21T05:08:14.463Z,39.70
2019-05-21T05:10:49.190Z,37.63
2019-05-21T05:13:17.451Z,36.11
2019-05-21T05:15:46.696Z,37.26
2019-05-21T05:18:16.162Z,36.16
2019-05-21T05:20:45.480Z,36.46
2019-05-21T05:23:14.940Z,36.97
2019-05-21T05:25:44.229Z,35.93
2019-05-21T05:28:13.402Z,36.70
2019-05-21T05:30:42.726Z,38.94
2019-05-21T05:33:12.012Z,40.47
2019-05-21T05:35:41.181Z,39.58
2019-05-21T05:38:10.373Z,39.54
2019-05-21T05:40:39.640Z,38.74
2019-05-21T05:43:08.887Z,37.22
2019-05-21T05:45:38.116Z,36.56
2019-05-21T05:48:07.396Z,35.88
2019-05-21T05:50:53.302Z,35.51
2019-05-21T05:53:22.546Z,34.38
2019-05-21T05:55:51.840Z,33.02
2019-05-21T05:58:21.098Z,34.83
2019-05-21T06:00:50.340Z,33.13
2019-05-21T06:03:19.613Z,35.70
2019-05-21T06:05:48.982Z,35.90
2019-05-21T06:08:18.267Z,36.67
2019-05-21T06:10:47.677Z,39.65
2019-05-21T06:13:16.860Z,40.07
2019-05-21T06:15:46.141Z,41.67
2019-05-21T06:18:15.601Z,41.50
2019-05-21T06:20:44.891Z,37.71
2019-05-21T06:23:14.063Z,37.85
2019-05-21T06:25:43.329Z,37.49
2019-05-21T06:28:12.670Z,38.74
2019-05-21T06:30:41.976Z,40.59
2019-05-21T06:33:11.180Z,42.12
2019-05-21T06:35:40.482Z,43.55
2019-05-21T06:38:17.690Z,45.11
2019-05-21T06:40:40.701Z,47.53
2019-05-21T06:43:09.980Z,49.05
2019-05-21T06:45:39.356Z,49.79
2019-05-21T06:48:08.602Z,51.54
2019-05-21T06:50:38.057Z,52.26
2019-05-21T06:53:07.540Z,53.28
2019-05-21T06:55:36.796Z,54.29
2019-05-21T06:58:06.040Z,53.63
2019-05-21T07:00:35.334Z,54.01
2019-05-21T07:03:04.563Z,55.94
2019-05-21T07:05:33.809Z,54.40
2019-05-21T07:08:02.979Z,55.44
2019-05-21T07:10:32.227Z,55.51
2019-05-21T07:13:01.429Z,55.10
2019-05-21T07:15:30.728Z,55.33
2019-05-21T07:17:59.934Z,55.21
2019-05-21T07:20:29.181Z,56.83
2019-05-21T07:22:58.636Z,56.99
2019-05-21T07:25:27.940Z,55.50
2019-05-21T07:27:57.233Z,54.98
2019-05-21T07:30:26.496Z,54.71
2019-05-21T07:32:55.936Z,54.22
2019-05-21T07:35:25.253Z,56.29
2019-05-21T07:37:54.466Z,55.39
2019-05-21T07:40:23.735Z,55.35
2019-05-21T07:42:52.948Z,54.55
2019-05-21T07:45:22.126Z,51.87
2019-05-21T07:47:51.301Z,53.56
2019-05-21T07:50:20.603Z,54.16
2019-05-21T07:52:49.786Z,52.32
2019-05-21T07:55:18.963Z,49.84
2019-05-21T07:57:48.315Z,49.11
2019-05-21T08:00:17.566Z,51.38
2019-05-21T08:02:46.752Z,52.58
2019-05-21T08:05:16.102Z,54.20
2019-05-21T08:07:45.307Z,55.97
2019-05-21T08:10:14.952Z,56.15
2019-05-21T08:12:44.289Z,55.90
2019-05-21T08:15:13.480Z,57.12
2019-05-21T08:17:42.792Z,57.70
2019-05-21T08:20:12.113Z,58.66
2019-05-21T08:22:41.377Z,58.71
2019-05-21T08:25:14.567Z,57.84
2019-05-21T08:27:41.567Z,58.40
2019-05-21T08:30:10.836Z,60.46
2019-05-21T08:32:40.065Z,60.55
2019-05-21T08:35:09.911Z,60.97
2019-05-21T08:37:39.160Z,59.76
2019-05-21T08:40:08.435Z,60.76
2019-05-21T08:42:37.696Z,60.43
2019-05-21T08:45:08.140Z,60.28
2019-05-21T08:47:37.375Z,60.09
2019-05-21T08:50:08.351Z,60.33
2019-05-21T08:52:37.615Z,60.07
2019-05-21T08:55:07.654Z,56.80
2019-05-21T08:57:38.450Z,53.96
2019-05-21T09:00:09.813Z,52.39
2019-05-21T09:02:39.109Z,54.41
2019-05-21T09:05:08.957Z,54.15
2019-05-21T09:07:38.134Z,50.84
2019-05-21T09:10:07.586Z,50.86
2019-05-21T09:12:36.889Z,51.94
2019-05-21T09:15:06.996Z,52.92
2019-05-21T09:17:36.216Z,52.60
2019-05-21T09:20:07.023Z,53.01
2019-05-21T09:22:36.284Z,54.89
2019-05-21T09:25:06.066Z,55.47
2019-05-21T09:27:36.029Z,55.53
2019-05-21T09:30:12.405Z,55.92
2019-05-21T09:32:41.634Z,56.62
2019-05-21T09:35:10.811Z,55.98
2019-05-21T09:37:40.062Z,55.61
2019-05-21T09:40:09.439Z,56.12
2019-05-21T09:42:39.149Z,55.45
2019-05-21T09:45:08.510Z,52.76
2019-05-21T09:47:37.857Z,52.01
2019-05-21T09:50:07.565Z,51.61
2019-05-21T09:52:36.801Z,52.14
2019-05-21T09:55:06.117Z,51.76
2019-05-21T09:57:37.071Z,52.48
2019-05-21T10:00:12.631Z,51.72
2019-05-21T10:02:41.983Z,51.56
2019-05-21T10:05:12.536Z,51.04
2019-05-21T10:07:41.810Z,51.46
2019-05-21T10:10:11.090Z,51.22
2019-05-21T10:12:40.334Z,51.34
2019-05-21T10:15:09.611Z,48.61
2019-05-21T10:17:38.820Z,49.83
2019-05-21T10:20:08.110Z,46.94
2019-05-21T10:22:38.987Z,49.46
2019-05-21T10:25:08.250Z,48.91
2019-05-21T10:27:38.468Z,47.91
2019-05-21T10:30:07.780Z,48.44
2019-05-21T10:32:37.046Z,47.17
2019-05-21T10:35:24.180Z,48.98
2019-05-21T10:37:55.550Z,49.10
2019-05-21T10:40:24.848Z,50.12
2019-05-21T10:42:56.498Z,49.69
2019-05-21T10:45:25.710Z,51.64
2019-05-21T10:47:54.888Z,53.20
2019-05-21T10:50:25.489Z,53.04
2019-05-21T10:52:54.817Z,53.78
2019-05-21T10:55:24.134Z,54.09
2019-05-21T10:57:53.443Z,53.23
2019-05-21T11:00:23.566Z,54.31
2019-05-21T11:03:03.616Z,52.28
2019-05-21T11:05:34.434Z,52.53
2019-05-21T11:08:22.974Z,51.69
2019-05-21T11:10:38.209Z,52.48
2019-05-21T11:13:07.464Z,52.03
2019-05-21T11:15:36.906Z,50.81
2019-05-21T11:18:11.427Z,51.85
2019-05-21T11:20:37.310Z,52.64
2019-05-21T11:23:06.561Z,53.30
2019-05-21T11:25:35.876Z,53.54
2019-05-21T11:28:06.175Z,54.47
2019-05-21T11:30:36.453Z,54.42
2019-05-21T11:33:05.722Z,54.97
2019-05-21T11:35:36.570Z,56.07
2019-05-21T11:38:05.891Z,54.75
2019-05-21T11:40:35.271Z,55.31
2019-05-21T11:43:05.824Z,53.99
2019-05-21T11:45:35.069Z,53.14
2019-05-21T11:48:07.527Z,54.14
2019-05-21T11:50:36.967Z,52.65
2019-05-21T11:53:06.409Z,53.30
2019-05-21T11:55:36.009Z,53.01
2019-05-21T11:58:05.360Z,54.23
2019-05-21T12:00:35.046Z,54.80
2019-05-21T12:03:04.636Z,55.25
2019-05-21T12:05:34.024Z,55.78
2019-05-21T12:08:03.339Z,55.34
2019-05-21T12:10:32.842Z,52.83
2019-05-21T12:13:02.099Z,51.90
2019-05-21T12:15:31.551Z,51.21
2019-05-21T12:18:00.874Z,52.66
2019-05-21T12:20:36.657Z,53.72
2019-05-21T12:23:01.538Z,50.50
2019-05-21T12:25:30.919Z,50.71
2019-05-21T12:28:00.255Z,47.32
2019-05-21T12:30:29.696Z,47.69
2019-05-21T12:33:00.037Z,48.50
2019-05-21T12:35:29.270Z,47.74
2019-05-21T12:37:58.557Z,49.48
2019-05-21T12:40:28.723Z,50.70
2019-05-21T12:42:58.132Z,49.77
2019-05-21T12:45:27.534Z,49.94
2019-05-21T12:47:56.914Z,50.00
2019-05-21T12:50:26.398Z,50.92
2019-05-21T12:52:55.722Z,51.46
2019-05-21T12:55:25.112Z,50.77
2019-05-21T12:57:54.619Z,51.61
2019-05-21T13:00:25.601Z,50.59
2019-05-21T13:02:54.927Z,48.49
2019-05-21T13:05:24.283Z,49.55
2019-05-21T13:07:53.549Z,48.17
2019-05-21T13:10:23.004Z,50.50
2019-05-21T13:12:52.330Z,55.13
2019-05-21T13:15:21.847Z,61.11
2019-05-21T13:17:51.372Z,63.42
2019-05-21T13:20:20.908Z,66.58
2019-05-21T13:22:50.229Z,70.67
2019-05-21T13:25:19.609Z,68.97
2019-05-21T13:27:48.994Z,70.80
2019-05-21T13:30:19.918Z,68.93
2019-05-21T13:32:49.301Z,67.64
2019-05-21T13:35:18.651Z,63.96
2019-05-21T13:37:48.246Z,66.52
2019-05-21T13:40:18.578Z,67.70
2019-05-21T13:42:47.966Z,65.35
2019-05-21T13:45:17.388Z,65.97
2019-05-21T13:47:46.651Z,65.39
2019-05-21T13:50:15.889Z,62.06
2019-05-21T13:52:45.286Z,63.04
2019-05-21T13:55:14.757Z,62.13
2019-05-21T13:57:44.089Z,61.51
2019-05-21T14:00:15.136Z,59.46
2019-05-21T14:02:44.525Z,61.31
2019-05-21T14:05:14.757Z,61.71
2019-05-21T14:07:44.097Z,60.24
2019-05-21T14:10:18.159Z,56.04
2019-05-21T14:12:44.576Z,57.53
2019-05-21T14:15:14.017Z,55.69
2019-05-21T14:17:43.451Z,55.65
2019-05-21T14:20:12.900Z,56.23
2019-05-21T14:22:42.140Z,55.95
2019-05-21T14:25:11.319Z,54.21
2019-05-21T14:27:44.808Z,53.11
2019-05-21T14:30:11.750Z,51.96
2019-05-21T14:32:41.173Z,52.33
2019-05-21T14:35:10.537Z,51.41
2019-05-21T14:37:39.918Z,52.24
2019-05-21T14:40:09.642Z,52.18
2019-05-21T14:42:39.188Z,52.99
2019-05-21T14:45:09.382Z,53.08
2019-05-21T14:47:38.613Z,53.62
2019-05-21T14:50:08.399Z,52.88
2019-05-21T14:52:37.660Z,52.48
2019-05-21T14:55:09.835Z,53.72
2019-05-21T14:57:40.103Z,51.79
2019-05-21T15:00:15.546Z,52.43
2019-05-21T15:02:45.175Z,51.63
2019-05-21T15:05:14.907Z,51.70
2019-05-21T15:07:44.335Z,50.98
2019-05-21T15:10:13.733Z,50.16
2019-05-21T15:12:44.143Z,50.50
2019-05-21T15:15:13.546Z,49.31
2019-05-21T15:17:42.868Z,48.44
2019-05-21T15:20:30.078Z,46.79
2019-05-21T15:22:59.390Z,48.03
2019-05-21T15:25:28.795Z,47.72
2019-05-21T15:27:58.347Z,45.55
2019-05-21T15:30:27.601Z,46.66
2019-05-21T15:32:57.033Z,46.36
2019-05-21T15:35:26.405Z,45.97
2019-05-21T15:37:55.688Z,46.28
2019-05-21T15:40:25.026Z,47.43
2019-05-21T15:42:54.378Z,48.52
2019-05-21T15:45:23.545Z,49.09
2019-05-21T15:47:52.835Z,48.34
2019-05-21T15:50:22.221Z,47.50
2019-05-21T15:52:51.579Z,48.98
2019-05-21T15:55:20.784Z,49.59
2019-05-21T15:57:50.292Z,49.81
2019-05-21T16:00:19.616Z,48.34
2019-05-21T16:02:48.879Z,49.64
2019-05-21T16:05:18.282Z,49.84
2019-05-21T16:07:47.545Z,51.00
2019-05-21T16:10:16.916Z,48.87
2019-05-21T16:12:46.342Z,49.21
2019-05-21T16:15:15.719Z,49.30
2019-05-21T16:17:45.048Z,49.61
2019-05-21T16:20:15.189Z,49.23
2019-05-21T16:22:44.486Z,48.56
2019-05-21T16:25:13.898Z,48.27
2019-05-21T16:27:43.215Z,49.26
2019-05-21T16:30:12.535Z,49.59
2019-05-21T16:32:41.751Z,49.60
2019-05-21T16:35:12.121Z,50.06
2019-05-21T16:37:41.532Z,49.80
2019-05-21T16:40:10.800Z,50.70
2019-05-21T16:42:40.277Z,50.54
2019-05-21T16:45:11.297Z,49.12
2019-05-21T16:47:46.297Z,49.49
2019-05-21T16:50:11.740Z,49.49
2019-05-21T16:52:40.987Z,49.41
2019-05-21T16:55:10.298Z,49.89
2019-05-21T16:57:39.624Z,50.82
2019-05-21T17:00:09.157Z,51.62
2019-05-21T17:02:38.481Z,52.08
2019-05-21T17:05:07.994Z,52.93
2019-05-21T17:07:37.392Z,52.97
2019-05-21T17:10:06.851Z,52.50
2019-05-21T17:12:36.097Z,52.61
2019-05-21T17:15:06.674Z,51.98
2019-05-21T17:17:35.944Z,52.45
2019-05-21T17:20:08.818Z,52.67
2019-05-21T17:22:38.312Z,52.13
2019-05-21T17:25:07.833Z,51.96
2019-05-21T17:27:37.186Z,52.60
2019-05-21T17:30:07.225Z,53.15
2019-05-21T17:32:36.804Z,53.40
2019-05-21T17:35:24.441Z,53.11
2019-05-21T17:37:53.702Z,53.93
2019-05-21T17:40:23.009Z,54.92
2019-05-21T17:42:52.296Z,55.04
2019-05-21T17:45:21.487Z,55.63
2019-05-21T17:47:50.658Z,56.20
2019-05-21T17:50:19.948Z,57.19
2019-05-21T17:52:49.196Z,57.41
2019-05-21T17:55:18.375Z,57.33
2019-05-21T17:57:47.863Z,57.50
2019-05-21T18:00:18.690Z,58.13
2019-05-21T18:02:48.091Z,57.78
2019-05-21T18:05:17.466Z,57.25
2019-05-21T18:07:46.745Z,56.95
2019-05-21T18:10:16.433Z,56.76
2019-05-21T18:12:46.353Z,55.84
2019-05-21T18:15:16.198Z,57.28
2019-05-21T18:17:46.198Z,58.63
2019-05-21T18:20:17.129Z,59.47
2019-05-21T18:22:48.023Z,59.52
2019-05-21T18:25:17.238Z,59.42
2019-05-21T18:27:46.774Z,60.17
2019-05-21T18:30:16.077Z,59.82
2019-05-21T18:32:45.494Z,60.16
2019-05-21T18:35:14.687Z,60.67
2019-05-21T18:37:43.922Z,60.39
2019-05-21T18:40:13.183Z,60.57
2019-05-21T18:42:42.428Z,60.30
2019-05-21T18:45:11.628Z,60.51
2019-05-21T18:47:40.902Z,60.70
2019-05-21T18:50:10.206Z,61.26
2019-05-21T18:52:39.379Z,61.51
2019-05-21T18:55:08.540Z,61.58
2019-05-21T18:57:37.742Z,60.76
2019-05-21T19:00:08.668Z,60.54
2019-05-21T19:02:37.838Z,60.91
2019-05-21T19:05:07.188Z,60.80
2019-05-21T19:07:36.690Z,61.99
2019-05-21T19:10:10.369Z,62.49
2019-05-21T19:12:39.702Z,61.35
2019-05-21T19:15:09.042Z,62.90
2019-05-21T19:17:38.349Z,63.23
2019-05-21T19:20:07.889Z,63.47
2019-05-21T19:22:37.150Z,61.80
2019-05-21T19:25:07.960Z,61.30
2019-05-21T19:27:37.235Z,61.80
2019-05-21T19:30:06.909Z,62.83
2019-05-21T19:32:36.148Z,63.09
2019-05-21T19:35:06.356Z,63.08
2019-05-21T19:37:35.586Z,63.04
2019-05-21T19:40:06.518Z,63.21
2019-05-21T19:42:52.288Z,63.54
2019-05-21T19:45:08.508Z,63.39
2019-05-21T19:47:37.720Z,61.67
2019-05-21T19:50:09.681Z,61.32
2019-05-21T19:52:38.859Z,61.91
2019-05-21T19:55:08.459Z,62.21
2019-05-21T19:57:38.511Z,62.86
2019-05-21T20:00:11.081Z,63.52
2019-05-21T20:02:40.659Z,62.93
2019-05-21T20:05:10.435Z,61.99
2019-05-21T20:07:39.698Z,62.62
2019-05-21T20:10:09.106Z,60.46
2019-05-21T20:12:38.452Z,59.01
2019-05-21T20:15:08.035Z,60.13
2019-05-21T20:17:39.729Z,60.11
2019-05-21T20:20:09.162Z,59.73
2019-05-21T20:22:38.815Z,60.78
2019-05-21T20:25:08.765Z,61.73
2019-05-21T20:27:38.001Z,62.74
2019-05-21T20:30:12.616Z,61.30
2019-05-21T20:32:41.234Z,62.53
2019-05-21T20:35:12.191Z,63.07
2019-05-21T20:37:43.079Z,62.80
2019-05-21T20:40:13.752Z,63.03
2019-05-21T20:42:43.696Z,61.73
2019-05-21T20:45:14.579Z,60.77
2019-05-21T20:47:44.727Z,59.85
2019-05-21T20:50:16.333Z,60.19
2019-05-21T20:52:45.548Z,60.99
2019-05-21T20:55:15.026Z,61.67
2019-05-21T20:57:44.272Z,59.11
2019-05-21T21:00:15.207Z,61.00
2019-05-21T21:02:44.750Z,60.75
2019-05-21T21:05:14.728Z,61.44
2019-05-21T21:07:44.126Z,61.37
2019-05-21T21:10:13.572Z,61.87
2019-05-21T21:12:44.383Z,62.35
2019-05-21T21:15:14.224Z,62.29
2019-05-21T21:17:44.249Z,62.48
2019-05-21T21:20:13.432Z,62.28
2019-05-21T21:22:42.660Z,63.49
2019-05-21T21:25:12.710Z,63.85
2019-05-21T21:27:41.947Z,63.51
2019-05-21T21:30:11.253Z,65.38
2019-05-21T21:32:40.416Z,65.15
2019-05-21T21:35:10.866Z,64.56
2019-05-21T21:37:40.230Z,64.95
2019-05-21T21:40:11.038Z,65.57
2019-05-21T21:42:41.312Z,65.31
2019-05-21T21:45:10.702Z,64.83
2019-05-21T21:47:41.438Z,64.94
2019-05-21T21:50:11.456Z,64.68
2019-05-21T21:52:41.413Z,64.21
2019-05-21T21:55:10.701Z,62.88
2019-05-21T21:57:40.972Z,64.32
2019-05-21T22:00:50.172Z,65.77
2019-05-21T22:03:19.553Z,66.19
2019-05-21T22:05:49.578Z,65.92
2019-05-21T22:08:18.762Z,66.25
2019-05-21T22:10:48.023Z,65.71
2019-05-21T22:13:17.571Z,63.98
2019-05-21T22:15:46.767Z,64.80
2019-05-21T22:18:16.009Z,64.01
2019-05-21T22:20:45.315Z,63.77
2019-05-21T22:23:14.557Z,62.12
2019-05-21T22:25:44.359Z,63.79
2019-05-21T22:28:13.623Z,65.03
2019-05-21T22:30:42.922Z,65.98
2019-05-21T22:33:12.102Z,66.79
2019-05-21T22:36:03.628Z,66.83
2019-05-21T22:38:33.053Z,66.69
2019-05-21T22:41:02.505Z,66.31
2019-05-21T22:43:31.970Z,65.65
2019-05-21T22:46:01.519Z,63.68
2019-05-21T22:48:30.940Z,65.13
2019-05-21T22:51:00.396Z,65.18
2019-05-21T22:53:29.853Z,64.64
2019-05-21T22:55:59.287Z,64.89
2019-05-21T22:58:28.764Z,64.68
2019-05-21T23:00:59.985Z,64.49
2019-05-21T23:03:29.471Z,65.30
2019-05-21T23:05:58.901Z,66.62
2019-05-21T23:08:28.328Z,66.94
2019-05-21T23:10:57.818Z,67.29
2019-05-21T23:13:27.251Z,67.69
2019-05-21T23:15:56.676Z,69.18
2019-05-21T23:18:26.140Z,69.57
2019-05-21T23:20:56.361Z,70.53
2019-05-21T23:23:27.139Z,70.33
2019-05-21T23:25:57.570Z,71.09
2019-05-21T23:28:27.187Z,70.53
2019-05-21T23:30:56.725Z,70.70
2019-05-21T23:33:26.609Z,70.42
2019-05-21T23:35:56.038Z,69.71
2019-05-21T23:38:25.472Z,69.88
2019-05-21T23:40:55.283Z,69.89
2019-05-21T23:43:24.723Z,69.85
2019-05-21T23:45:54.154Z,70.20
2019-05-21T23:48:23.860Z,69.16
2019-05-21T23:50:53.287Z,68.56
2019-05-21T23:53:22.735Z,69.28
2019-05-21T23:55:53.452Z,69.85
2019-05-21T23:58:22.903Z,70.34
